createdAt,value
2017-10-28T00:00:42.995Z,179.00
2017-10-28T00:03:10.497Z,482.03
2017-10-28T00:05:37.990Z,190.70
2017-10-28T00:08:05.719Z,296.20
2017-10-28T00:10:33.216Z,175.10
2017-10-28T00:13:00.711Z,167.70
2017-10-28T00:15:28.976Z,163.50
2017-10-28T00:17:56.481Z,250.20
2017-10-28T00:20:23.984Z,242.60
2017-10-28T00:22:51.489Z,183.50
2017-10-28T00:25:18.988Z,175.47
2017-10-28T00:27:46.482Z,168.03
2017-10-28T00:30:20.465Z,187.83
2017-10-28T00:32:53.739Z,166.23
2017-10-28T00:35:41.022Z,163.17
2017-10-28T00:38:09.274Z,197.07
2017-10-28T00:40:36.770Z,184.73
2017-10-28T00:43:04.258Z,202.67
2017-10-28T00:45:31.747Z,184.57
2017-10-28T00:47:59.240Z,191.90
2017-10-28T00:50:27.503Z,206.37
2017-10-28T00:52:55.758Z,194.07
2017-10-28T00:55:23.238Z,191.50
2017-10-28T00:57:51.494Z,186.60
2017-10-28T01:00:18.987Z,184.97
2017-10-28T01:02:47.246Z,183.67
2017-10-28T01:05:14.729Z,184.03
2017-10-28T01:07:42.213Z,188.20
2017-10-28T01:10:09.703Z,181.17
2017-10-28T01:12:37.195Z,189.73
2017-10-28T01:15:05.445Z,187.50
2017-10-28T01:17:32.947Z,185.93
2017-10-28T01:20:00.438Z,190.13
2017-10-28T01:22:27.940Z,199.87
2017-10-28T01:24:56.219Z,196.93
2017-10-28T01:27:24.469Z,181.67
2017-10-28T01:29:51.964Z,187.70
2017-10-28T01:32:20.237Z,179.33
2017-10-28T01:34:48.504Z,186.60
2017-10-28T01:37:15.995Z,189.70
2017-10-28T01:39:43.489Z,186.67
2017-10-28T01:42:10.972Z,183.70
2017-10-28T01:44:38.452Z,183.87
2017-10-28T01:47:06.707Z,179.90
2017-10-28T01:49:34.201Z,192.50
2017-10-28T01:52:01.695Z,185.37
2017-10-28T01:54:29.182Z,183.87
2017-10-28T01:56:56.665Z,179.77
2017-10-28T01:59:24.934Z,194.43
2017-10-28T02:01:53.181Z,181.63
2017-10-28T02:04:20.673Z,198.87
2017-10-28T02:06:48.929Z,185.63
2017-10-28T02:09:16.413Z,203.00
2017-10-28T02:11:44.674Z,183.83
2017-10-28T02:14:12.163Z,197.67
2017-10-28T02:16:39.665Z,193.60
2017-10-28T02:19:07.163Z,196.10
2017-10-28T02:21:35.414Z,174.50
2017-10-28T02:24:02.935Z,193.43
2017-10-28T02:26:30.426Z,190.67
2017-10-28T02:28:57.918Z,194.60
2017-10-28T02:31:26.174Z,197.40
2017-10-28T02:33:53.668Z,194.00
2017-10-28T02:36:21.925Z,198.90
2017-10-28T02:38:49.405Z,186.57
2017-10-28T02:41:17.663Z,200.87
2017-10-28T02:43:45.926Z,189.40
2017-10-28T02:46:13.414Z,203.30
2017-10-28T02:48:41.675Z,188.97
2017-10-28T02:51:09.926Z,193.70
2017-10-28T02:53:37.410Z,202.63
2017-10-28T02:56:05.672Z,191.43
2017-10-28T02:58:33.173Z,190.37
2017-10-28T03:01:00.676Z,187.10
2017-10-28T03:03:28.173Z,197.13
2017-10-28T03:05:56.443Z,186.00
2017-10-28T03:08:24.707Z,186.93
2017-10-28T03:10:52.209Z,200.53
2017-10-28T03:13:19.702Z,203.50
2017-10-28T03:15:47.199Z,193.93
2017-10-28T03:18:15.465Z,188.00
2017-10-28T03:20:42.962Z,188.60
2017-10-28T03:23:10.452Z,192.53
2017-10-28T03:25:37.948Z,204.83
2017-10-28T03:28:05.448Z,199.63
2017-10-28T03:30:32.935Z,209.53
2017-10-28T03:33:00.430Z,197.50
2017-10-28T03:35:28.698Z,208.73
2017-10-28T03:37:56.958Z,205.80
2017-10-28T03:40:24.464Z,200.87
2017-10-28T03:42:51.959Z,191.60
2017-10-28T03:45:19.461Z,187.23
2017-10-28T03:47:47.722Z,191.47
2017-10-28T03:50:15.216Z,199.60
2017-10-28T03:52:43.473Z,188.00
2017-10-28T03:55:11.743Z,192.43
2017-10-28T03:57:39.239Z,197.93
2017-10-28T04:00:06.735Z,199.17
2017-10-28T04:02:34.227Z,203.63
2017-10-28T04:05:02.494Z,198.97
2017-10-28T04:07:30.109Z,191.77
2017-10-28T04:09:57.594Z,198.37
2017-10-28T04:12:25.081Z,192.60
2017-10-28T04:14:52.570Z,190.00
2017-10-28T04:17:20.063Z,206.23
2017-10-28T04:19:47.550Z,186.20
2017-10-28T04:22:15.037Z,205.63
2017-10-28T04:24:43.290Z,211.90
2017-10-28T04:27:10.793Z,215.83
2017-10-28T04:29:38.294Z,205.60
2017-10-28T04:32:05.781Z,202.60
2017-10-28T04:34:34.041Z,208.77
2017-10-28T04:37:01.539Z,215.80
2017-10-28T04:39:29.027Z,193.37
2017-10-28T04:41:56.514Z,196.03
2017-10-28T04:44:24.017Z,191.83
2017-10-28T04:46:51.502Z,192.00
2017-10-28T04:49:18.996Z,203.07
2017-10-28T04:51:46.491Z,196.80
2017-10-28T04:54:13.982Z,188.50
2017-10-28T04:56:41.474Z,189.87
2017-10-28T04:59:08.960Z,199.90
2017-10-28T05:01:37.220Z,195.77
2017-10-28T05:04:05.482Z,192.63
2017-10-28T05:06:32.982Z,189.73
2017-10-28T05:09:00.475Z,196.20
2017-10-28T05:11:27.967Z,192.33
2017-10-28T05:13:55.468Z,184.30
2017-10-28T05:16:22.954Z,176.57
2017-10-28T05:18:50.441Z,189.97
2017-10-28T05:21:17.936Z,204.07
2017-10-28T05:23:45.427Z,190.00
2017-10-28T05:26:12.915Z,186.37
2017-10-28T05:28:40.398Z,178.43
2017-10-28T05:31:08.680Z,174.07
2017-10-28T05:33:36.945Z,178.37
2017-10-28T05:36:05.207Z,184.50
2017-10-28T05:38:32.703Z,194.73
2017-10-28T05:41:00.191Z,188.77
2017-10-28T05:43:27.674Z,197.10
2017-10-28T05:45:55.165Z,205.10
2017-10-28T05:48:23.424Z,190.43
2017-10-28T05:50:50.915Z,191.50
2017-10-28T05:53:18.407Z,186.47
2017-10-28T05:55:45.895Z,178.47
2017-10-28T05:58:13.384Z,179.63
2017-10-28T06:00:41.646Z,189.27
2017-10-28T06:03:09.902Z,175.17
2017-10-28T06:05:37.394Z,198.67
2017-10-28T06:08:05.656Z,170.93
2017-10-28T06:10:33.918Z,189.57
2017-10-28T06:13:01.418Z,189.80
2017-10-28T06:15:28.901Z,185.23
2017-10-28T06:17:56.394Z,188.27
2017-10-28T06:20:23.886Z,186.93
2017-10-28T06:22:52.134Z,173.63
2017-10-28T06:25:19.618Z,192.03
2017-10-28T06:27:47.865Z,167.60
2017-10-28T06:30:15.405Z,171.53
2017-10-28T06:32:42.899Z,181.33
2017-10-28T06:35:10.407Z,183.47
2017-10-28T06:37:37.908Z,180.43
2017-10-28T06:40:05.389Z,174.03
2017-10-28T06:42:33.655Z,168.70
2017-10-28T06:45:01.925Z,174.63
2017-10-28T06:47:29.410Z,180.70
2017-10-28T06:49:56.902Z,170.47
2017-10-28T06:52:24.392Z,166.23
2017-10-28T06:54:51.888Z,166.77
2017-10-28T06:57:19.373Z,171.77
2017-10-28T06:59:46.865Z,156.47
2017-10-28T07:02:14.355Z,161.43
2017-10-28T07:04:42.614Z,163.63
2017-10-28T07:07:10.107Z,162.97
2017-10-28T07:09:37.593Z,157.73
2017-10-28T07:12:05.068Z,165.50
2017-10-28T07:14:32.555Z,159.20
2017-10-28T07:17:00.044Z,141.90
2017-10-28T07:19:27.535Z,148.90
2017-10-28T07:21:55.027Z,147.00
2017-10-28T07:24:22.519Z,133.37
2017-10-28T07:26:50.016Z,140.20
2017-10-28T07:29:17.501Z,137.40
2017-10-28T07:31:44.983Z,137.43
2017-10-28T07:34:13.235Z,143.93
2017-10-28T07:36:40.729Z,116.50
2017-10-28T07:39:08.216Z,126.07
2017-10-28T07:41:35.703Z,130.80
2017-10-28T07:44:03.204Z,123.63
2017-10-28T07:46:30.703Z,126.27
2017-10-28T07:48:58.207Z,136.07
2017-10-28T07:51:26.466Z,129.97
2017-10-28T07:53:53.945Z,122.53
2017-10-28T07:56:22.193Z,119.27
2017-10-28T07:58:49.697Z,126.30
2017-10-28T08:01:17.197Z,124.10
2017-10-28T08:03:50.306Z,204.97
2017-10-28T08:06:17.798Z,331.97
2017-10-28T08:08:46.066Z,322.40
2017-10-28T08:11:14.324Z,251.93
2017-10-28T08:13:41.815Z,200.27
2017-10-28T08:16:10.076Z,150.63
2017-10-28T08:18:38.335Z,125.47
2017-10-28T08:21:05.831Z,178.77
2017-10-28T08:23:33.327Z,142.10
2017-10-28T08:26:00.824Z,130.33
2017-10-28T08:28:29.091Z,130.07
2017-10-28T08:30:56.583Z,124.60
2017-10-28T08:33:24.079Z,148.47
2017-10-28T08:35:51.589Z,131.77
2017-10-28T08:38:19.851Z,113.37
2017-10-28T08:40:47.342Z,194.60
2017-10-28T08:43:14.829Z,103.30
2017-10-28T08:45:42.313Z,104.03
2017-10-28T08:48:09.797Z,111.50
2017-10-28T08:50:38.051Z,238.70
2017-10-28T08:53:05.537Z,135.77
2017-10-28T08:55:33.801Z,115.67
2017-10-28T08:58:01.281Z,649.30
2017-10-28T09:00:29.543Z,368.33
2017-10-28T09:02:57.802Z,107.77
2017-10-28T09:05:25.328Z,318.97
2017-10-28T09:07:53.393Z,127.50
2017-10-28T09:10:20.974Z,138.43
2017-10-28T09:12:48.645Z,164.83
2017-10-28T09:15:16.260Z,164.40
2017-10-28T09:17:43.760Z,131.67
2017-10-28T09:20:12.148Z,116.43
2017-10-28T09:22:39.884Z,126.00
2017-10-28T09:25:07.589Z,137.27
2017-10-28T09:27:35.079Z,145.63
2017-10-28T09:30:03.485Z,151.37
2017-10-28T09:32:30.978Z,152.27
2017-10-28T09:34:58.464Z,133.80
2017-10-28T09:37:27.022Z,148.33
2017-10-28T09:39:54.808Z,142.13
2017-10-28T09:42:22.482Z,147.10
2017-10-28T09:44:50.875Z,144.63
2017-10-28T09:47:19.431Z,145.47
2017-10-28T09:49:47.160Z,139.33
2017-10-28T09:52:14.810Z,141.10
2017-10-28T09:54:42.472Z,145.63
2017-10-28T09:57:11.131Z,133.20
2017-10-28T09:59:39.380Z,141.23
2017-10-28T10:02:06.963Z,122.30
2017-10-28T10:04:35.226Z,144.60
2017-10-28T10:07:03.963Z,123.23
2017-10-28T10:09:32.126Z,134.67
2017-10-28T10:11:59.821Z,142.73
2017-10-28T10:14:28.281Z,136.10
2017-10-28T10:16:56.209Z,144.67
2017-10-28T10:19:24.687Z,154.43
2017-10-28T10:24:36.214Z,165.43
2017-10-28T10:27:05.327Z,145.47
2017-10-28T10:29:34.279Z,150.27
2017-10-28T10:32:02.492Z,164.93
2017-10-28T10:34:32.419Z,150.53
2017-10-28T10:37:01.323Z,158.23
2017-10-28T10:39:30.540Z,163.87
2017-10-28T10:41:58.418Z,151.63
2017-10-28T10:44:26.392Z,159.17
2017-10-28T10:46:55.112Z,161.67
2017-10-28T10:49:23.836Z,159.30
2017-10-28T10:51:53.570Z,142.63
2017-10-28T10:54:22.875Z,179.23
2017-10-28T10:56:51.322Z,169.13
2017-10-28T10:59:19.218Z,147.20
2017-10-28T11:01:47.261Z,158.13
2017-10-28T11:04:14.778Z,139.03
2017-10-28T11:06:43.087Z,149.70
2017-10-28T11:09:10.617Z,139.53
2017-10-28T11:11:38.108Z,156.57
2017-10-28T11:14:05.892Z,137.37
2017-10-28T11:16:33.376Z,145.07
2017-10-28T11:19:00.925Z,131.47
2017-10-28T11:21:28.435Z,132.17
2017-10-28T11:23:56.697Z,123.83
2017-10-28T11:26:24.962Z,143.13
2017-10-28T11:28:52.453Z,125.50
2017-10-28T11:31:20.866Z,123.90
2017-10-28T11:33:48.411Z,127.70
2017-10-28T11:36:15.940Z,143.37
2017-10-28T11:38:44.333Z,141.90
2017-10-28T11:41:12.719Z,130.43
2017-10-28T11:43:40.279Z,124.40
2017-10-28T11:46:07.778Z,125.67
2017-10-28T11:48:35.287Z,133.33
2017-10-28T11:51:03.568Z,147.70
2017-10-28T11:53:31.831Z,152.70
2017-10-28T11:56:00.123Z,140.87
2017-10-28T11:58:28.413Z,133.73
2017-10-28T12:00:55.922Z,141.63
2017-10-28T12:03:23.452Z,163.43
2017-10-28T12:05:51.080Z,454.70
2017-10-28T12:08:19.346Z,145.03
2017-10-28T12:10:47.606Z,139.80
2017-10-28T12:13:15.171Z,432.20
2017-10-28T12:15:43.460Z,139.00
2017-10-28T12:18:11.736Z,124.80
2017-10-28T12:20:40.077Z,120.07
2017-10-28T12:23:07.590Z,147.70
2017-10-28T12:25:35.851Z,128.30
2017-10-28T12:28:04.170Z,138.00
2017-10-28T12:30:32.665Z,132.30
2017-10-28T12:33:00.404Z,143.93
2017-10-28T12:35:29.111Z,150.53
2017-10-28T12:37:56.874Z,358.47
2017-10-28T12:40:24.700Z,297.23
2017-10-28T12:42:53.195Z,266.00
2017-10-28T12:45:21.629Z,734.13
2017-10-28T12:47:49.380Z,213.40
2017-10-28T12:50:17.183Z,218.40
2017-10-28T12:52:45.615Z,588.87
2017-10-28T12:55:13.207Z,1290.93
2017-10-28T12:57:40.887Z,860.87
2017-10-28T13:00:10.075Z,821.13
2017-10-28T13:02:38.480Z,764.07
2017-10-28T13:05:06.903Z,965.67
2017-10-28T13:07:34.581Z,241.20
2017-10-28T13:10:02.196Z,834.00
2017-10-28T13:12:30.708Z,1073.17
2017-10-28T13:14:58.284Z,994.07
2017-10-28T13:17:26.042Z,587.77
2017-10-28T13:19:53.697Z,378.80
2017-10-28T13:22:21.342Z,448.30
2017-10-28T13:24:48.865Z,1245.67
2017-10-28T13:27:16.583Z,500.13
2017-10-28T13:29:44.312Z,773.63
2017-10-28T13:32:12.579Z,909.90
2017-10-28T13:34:40.135Z,733.93
2017-10-28T13:37:07.654Z,373.90
2017-10-28T13:39:35.509Z,291.77
2017-10-28T13:42:03.397Z,250.17
2017-10-28T13:44:30.936Z,918.37
2017-10-28T13:46:58.511Z,855.30
2017-10-28T13:49:27.024Z,627.27
2017-10-28T13:51:54.659Z,1635.30
2017-10-28T13:54:22.370Z,1206.30
2017-10-28T13:56:50.657Z,1000.97
2017-10-28T13:59:18.935Z,568.60
2017-10-28T14:01:47.699Z,790.13
2017-10-28T14:04:16.139Z,946.00
2017-10-28T14:06:43.699Z,856.10
2017-10-28T14:09:11.369Z,848.40
2017-10-28T14:11:40.093Z,1163.97
2017-10-28T14:14:07.712Z,437.23
2017-10-28T14:16:35.476Z,1055.57
2017-10-28T14:19:03.049Z,306.70
2017-10-28T14:21:31.618Z,955.43
2017-10-28T14:23:59.199Z,740.00
2017-10-28T14:26:26.995Z,345.73
2017-10-28T14:28:54.575Z,538.60
2017-10-28T14:31:22.848Z,1389.80
2017-10-28T14:36:43.300Z,701.07
2017-10-28T14:39:10.893Z,730.83
2017-10-28T14:41:38.530Z,316.37
2017-10-28T14:44:06.031Z,577.77
2017-10-28T14:46:33.536Z,657.77
2017-10-28T14:49:01.029Z,454.27
2017-10-28T14:51:28.527Z,695.53
2017-10-28T14:53:56.798Z,527.93
2017-10-28T14:56:24.280Z,544.17
2017-10-28T14:58:51.774Z,575.17
2017-10-28T15:01:19.274Z,299.67
2017-10-28T15:03:46.782Z,514.80
2017-10-28T15:06:14.274Z,181.80
2017-10-28T15:08:41.771Z,507.07
2017-10-28T15:11:10.043Z,504.43
2017-10-28T15:13:38.308Z,323.87
2017-10-28T15:16:06.566Z,404.27
2017-10-28T15:18:34.058Z,231.33
2017-10-28T15:21:02.317Z,327.50
2017-10-28T15:23:29.808Z,316.70
2017-10-28T15:25:57.307Z,433.90
2017-10-28T15:28:24.803Z,335.67
2017-10-28T15:30:53.058Z,216.87
2017-10-28T15:33:21.333Z,198.47
2017-10-28T15:35:48.838Z,280.30
2017-10-28T15:38:16.331Z,290.07
2017-10-28T15:40:43.918Z,815.70
2017-10-28T15:43:11.414Z,193.50
2017-10-28T15:45:38.927Z,175.13
2017-10-28T15:48:06.416Z,152.17
2017-10-28T15:50:34.698Z,154.43
2017-10-28T15:53:04.608Z,153.13
2017-10-28T15:55:34.255Z,147.47
2017-10-28T15:58:03.608Z,208.03
2017-10-28T16:00:33.756Z,137.40
2017-10-28T16:03:02.695Z,147.93
2017-10-28T16:05:31.726Z,155.63
2017-10-28T16:08:01.066Z,152.07
2017-10-28T16:10:32.719Z,178.50
2017-10-28T16:13:00.899Z,146.63
2017-10-28T16:15:29.891Z,149.90
2017-10-28T16:17:58.755Z,149.10
2017-10-28T16:20:28.412Z,156.07
2017-10-28T16:22:56.342Z,154.03
2017-10-28T16:25:25.214Z,158.90
2017-10-28T16:27:53.888Z,181.00
2017-10-28T16:30:23.150Z,162.47
2017-10-28T16:32:53.439Z,154.87
2017-10-28T16:35:22.325Z,186.80
2017-10-28T16:37:51.503Z,166.00
2017-10-28T16:40:20.331Z,150.47
2017-10-28T16:42:49.077Z,147.80
2017-10-28T16:45:18.289Z,162.73
2017-10-28T16:47:47.049Z,165.00
2017-10-28T16:50:15.514Z,157.53
2017-10-28T16:52:45.598Z,227.60
2017-10-28T16:55:13.169Z,158.10
2017-10-28T16:57:40.664Z,147.83
2017-10-28T17:00:09.045Z,161.23
2017-10-28T17:02:37.817Z,162.40
2017-10-28T17:05:09.174Z,178.47
2017-10-28T17:07:37.649Z,158.73
2017-10-28T17:10:05.885Z,148.40
2017-10-28T17:12:34.554Z,164.03
2017-10-28T17:15:03.811Z,164.20
2017-10-28T17:17:31.706Z,154.23
2017-10-28T17:19:59.194Z,155.97
2017-10-28T17:22:26.699Z,175.30
2017-10-28T17:24:54.193Z,150.17
2017-10-28T17:27:21.690Z,352.90
2017-10-28T17:29:49.951Z,404.20
2017-10-28T17:32:18.216Z,363.20
2017-10-28T17:34:45.708Z,333.40
2017-10-28T17:37:13.209Z,183.07
2017-10-28T17:39:40.698Z,152.27
2017-10-28T17:42:08.187Z,151.80
2017-10-28T17:44:35.674Z,141.50
2017-10-28T17:47:05.031Z,421.90
2017-10-28T17:52:10.079Z,134.07
2017-10-28T17:54:38.341Z,121.47
2017-10-28T17:57:05.829Z,120.90
2017-10-28T17:59:34.099Z,130.23
2017-10-28T18:02:02.354Z,113.20
2017-10-28T18:04:29.838Z,119.33
2017-10-28T18:06:58.091Z,136.13
2017-10-28T18:09:25.579Z,126.97
2017-10-28T18:11:53.833Z,136.70
2017-10-28T18:14:21.329Z,138.60
2017-10-28T18:16:48.831Z,119.23
2017-10-28T18:19:16.318Z,117.33
2017-10-28T18:21:43.807Z,115.90
2017-10-28T18:24:11.310Z,153.53
2017-10-28T18:26:38.804Z,156.50
2017-10-28T18:29:07.088Z,129.47
2017-10-28T18:31:35.373Z,119.73
2017-10-28T18:34:02.908Z,117.80
2017-10-28T18:36:30.398Z,102.37
2017-10-28T18:38:57.894Z,104.00
2017-10-28T18:41:25.385Z,102.47
2017-10-28T18:43:52.879Z,99.93
2017-10-28T18:46:20.392Z,96.77
2017-10-28T18:48:47.889Z,99.77
2017-10-28T18:51:15.406Z,94.30
2017-10-28T18:53:42.903Z,90.87
2017-10-28T18:56:11.176Z,83.37
2017-10-28T18:58:39.451Z,80.70
2017-10-28T19:01:07.728Z,78.97
2017-10-28T19:03:36.361Z,101.83
2017-10-28T19:06:03.854Z,86.03
2017-10-28T19:08:31.350Z,93.07
2017-10-28T19:10:58.838Z,79.67
2017-10-28T19:13:26.317Z,86.97
2017-10-28T19:15:53.808Z,82.67
2017-10-28T19:18:22.073Z,93.70
2017-10-28T19:20:49.548Z,84.23
2017-10-28T19:23:17.813Z,65.13
2017-10-28T19:25:46.078Z,73.93
2017-10-28T19:28:13.572Z,61.23
2017-10-28T19:30:41.085Z,57.80
2017-10-28T19:33:08.588Z,68.13
2017-10-28T19:35:36.854Z,67.60
2017-10-28T19:38:05.117Z,53.83
2017-10-28T19:40:32.602Z,51.23
2017-10-28T19:43:00.095Z,48.47
2017-10-28T19:45:27.594Z,46.00
2017-10-28T19:47:55.077Z,39.83
2017-10-28T19:50:23.343Z,37.50
2017-10-28T19:52:51.617Z,41.00
2017-10-28T19:55:19.890Z,39.70
2017-10-28T19:57:48.179Z,45.10
2017-10-28T20:00:16.436Z,32.07
2017-10-28T20:02:43.932Z,35.17
2017-10-28T20:05:11.431Z,39.10
2017-10-28T20:07:38.926Z,32.70
2017-10-28T20:10:07.181Z,34.90
2017-10-28T20:12:34.661Z,36.03
2017-10-28T20:15:02.937Z,102.83
2017-10-28T20:17:31.202Z,41.30
2017-10-28T20:19:58.682Z,45.57
2017-10-28T20:22:26.965Z,39.43
2017-10-28T20:24:54.471Z,44.13
2017-10-28T20:27:21.966Z,36.60
2017-10-28T20:29:50.240Z,38.20
2017-10-28T20:32:17.729Z,35.63
2017-10-28T20:34:45.230Z,32.93
2017-10-28T20:37:12.723Z,36.33
2017-10-28T20:39:40.979Z,35.27
2017-10-28T20:42:08.480Z,29.83
2017-10-28T20:44:35.966Z,29.90
2017-10-28T20:47:03.455Z,27.60
2017-10-28T20:49:30.951Z,26.70
2017-10-28T20:51:59.202Z,23.83
2017-10-28T20:54:26.696Z,30.90
2017-10-28T20:56:54.208Z,32.77
2017-10-28T20:59:22.530Z,25.47
2017-10-28T21:01:50.025Z,23.33
2017-10-28T21:04:17.516Z,24.27
2017-10-28T21:06:44.994Z,25.93
2017-10-28T21:09:13.267Z,26.00
2017-10-28T21:11:41.517Z,31.13
2017-10-28T21:14:09.008Z,28.77
2017-10-28T21:16:37.268Z,24.73
2017-10-28T21:19:04.760Z,32.07
2017-10-28T21:21:32.235Z,25.43
2017-10-28T21:23:59.756Z,22.67
2017-10-28T21:26:28.011Z,22.50
2017-10-28T21:31:37.576Z,26.30
2017-10-28T21:34:05.079Z,20.27
2017-10-28T21:36:32.567Z,22.70
2017-10-28T21:39:00.058Z,24.57
2017-10-28T21:41:27.547Z,24.90
2017-10-28T21:43:55.035Z,34.10
2017-10-28T21:46:22.536Z,22.83
2017-10-28T21:48:50.046Z,22.93
2017-10-28T21:51:17.535Z,20.93
2017-10-28T21:53:45.044Z,19.20
2017-10-28T21:56:12.534Z,19.10
2017-10-28T21:58:40.029Z,21.37
2017-10-28T22:01:07.515Z,23.73
2017-10-28T22:03:35.777Z,28.47
2017-10-28T22:06:04.021Z,23.20
2017-10-28T22:08:31.507Z,21.57
2017-10-28T22:10:59.770Z,20.83
2017-10-28T22:13:27.276Z,20.00
2017-10-28T22:15:54.773Z,18.70
2017-10-28T22:18:22.246Z,21.40
2017-10-28T22:20:49.735Z,27.03
2017-10-28T22:23:18.010Z,24.03
2017-10-28T22:25:46.254Z,18.23
2017-10-28T22:28:13.752Z,29.07
2017-10-28T22:30:42.013Z,29.13
2017-10-28T22:33:10.266Z,19.10
2017-10-28T22:35:37.753Z,22.23
2017-10-28T22:38:06.035Z,19.77
2017-10-28T22:40:34.278Z,30.73
2017-10-28T22:43:01.787Z,21.13
2017-10-28T22:45:29.291Z,33.87
2017-10-28T22:47:56.779Z,22.67
2017-10-28T22:50:25.030Z,30.27
2017-10-28T22:52:52.515Z,20.97
2017-10-28T22:55:20.019Z,32.47
2017-10-28T22:57:47.499Z,23.40
2017-10-28T23:00:14.986Z,24.03
2017-10-28T23:02:42.473Z,42.30
2017-10-28T23:05:09.945Z,26.80
2017-10-28T23:07:37.430Z,21.70
2017-10-28T23:10:04.921Z,39.40
2017-10-28T23:12:32.411Z,40.70
2017-10-28T23:14:59.890Z,20.70
2017-10-28T23:17:27.384Z,24.33
2017-10-28T23:19:54.869Z,26.40
2017-10-28T23:22:23.155Z,24.57
2017-10-28T23:24:51.421Z,24.23
2017-10-28T23:27:19.682Z,26.40
2017-10-28T23:29:47.158Z,20.67
2017-10-28T23:32:15.429Z,24.10
2017-10-28T23:34:42.922Z,22.27
2017-10-28T23:37:10.573Z,21.80
2017-10-28T23:39:38.828Z,19.90
2017-10-28T23:42:06.317Z,21.43
2017-10-28T23:44:33.797Z,19.90
2017-10-28T23:47:01.350Z,22.67
2017-10-28T23:49:29.013Z,35.23
2017-10-28T23:51:56.654Z,19.80
2017-10-28T23:54:24.303Z,19.90
2017-10-28T23:56:52.617Z,16.27
2017-10-28T23:59:20.150Z,20.77
